sensor_id;sensor_type;location;lat;lon;timestamp;pressure;altitude;pressure_sealevel;temperature;humidity
31595;BME280;18200;48.726;8.892;2023-02-28T00:01:57;97356.91;;;9.69;30.37
31595;BME280;18200;48.726;8.892;2023-02-28T00:05:57;97350.19;;;10.23;29.57
31595;BME280;18200;48.726;8.892;2023-02-28T00:09:58;97352.44;;;10.21;29.42
31595;BME280;18200;48.726;8.892;2023-02-28T00:13:58;97359.06;;;10.63;29.19
31595;BME280;18200;48.726;8.892;2023-02-28T00:17:59;97349.88;;;10.64;28.96
31595;BME280;18200;48.726;8.892;2023-02-28T00:21:59;97353.28;;;9.65;30.05
31595;BME280;18200;48.726;8.892;2023-02-28T00:25:59;97350.28;;;10.27;29.29
31595;BME280;18200;48.726;8.892;2023-02-28T00:30:00;97348.84;;;10.17;29.92
31595;BME280;18200;48.726;8.892;2023-02-28T00:34:01;97345.41;;;10.56;28.96
31595;BME280;18200;48.726;8.892;2023-02-28T00:38:01;97350.41;;;9.13;31.22
31595;BME280;18200;48.726;8.892;2023-02-28T00:42:03;97353.75;;;9.91;30.72
31595;BME280;18200;48.726;8.892;2023-02-28T00:46:04;97354.00;;;9.98;30.52
31595;BME280;18200;48.726;8.892;2023-02-28T00:50:05;97344.66;;;10.44;29.49
31595;BME280;18200;48.726;8.892;2023-02-28T00:54:06;97341.91;;;9.80;30.80
31595;BME280;18200;48.726;8.892;2023-02-28T00:58:06;97342.13;;;9.63;30.16
31595;BME280;18200;48.726;8.892;2023-02-28T01:02:07;97339.91;;;10.13;30.34
31595;BME280;18200;48.726;8.892;2023-02-28T01:06:07;97344.78;;;10.47;29.90
31595;BME280;18200;48.726;8.892;2023-02-28T01:10:08;97341.38;;;9.17;32.01
31595;BME280;18200;48.726;8.892;2023-02-28T01:14:12;97340.81;;;10.17;30.70
31595;BME280;18200;48.726;8.892;2023-02-28T01:18:13;97340.88;;;9.48;31.37
31595;BME280;18200;48.726;8.892;2023-02-28T01:22:13;97334.28;;;9.01;32.13
31595;BME280;18200;48.726;8.892;2023-02-28T01:26:19;97339.03;;;8.83;33.01
31595;BME280;18200;48.726;8.892;2023-02-28T01:30:19;97334.78;;;8.82;32.78
31595;BME280;18200;48.726;8.892;2023-02-28T01:34:21;97330.28;;;9.76;31.33
31595;BME280;18200;48.726;8.892;2023-02-28T01:38:21;97338.97;;;9.61;31.79
31595;BME280;18200;48.726;8.892;2023-02-28T01:42:21;97338.47;;;8.57;32.92
31595;BME280;18200;48.726;8.892;2023-02-28T01:46:22;97333.25;;;9.26;32.42
31595;BME280;18200;48.726;8.892;2023-02-28T01:50:26;97332.31;;;9.67;31.49
31595;BME280;18200;48.726;8.892;2023-02-28T01:54:31;97326.75;;;8.82;33.05
31595;BME280;18200;48.726;8.892;2023-02-28T01:58:32;97320.59;;;9.14;32.31
31595;BME280;18200;48.726;8.892;2023-02-28T02:02:32;97313.06;;;9.41;32.55
31595;BME280;18200;48.726;8.892;2023-02-28T02:06:37;97310.34;;;9.28;32.92
31595;BME280;18200;48.726;8.892;2023-02-28T02:10:44;97304.78;;;9.70;32.07
31595;BME280;18200;48.726;8.892;2023-02-28T02:15:02;97303.31;;;8.58;33.42
31595;BME280;18200;48.726;8.892;2023-02-28T02:36:24;97291.63;;;9.77;33.22
31595;BME280;18200;48.726;8.892;2023-02-28T02:40:34;97295.97;;;9.81;32.93
31595;BME280;18200;48.726;8.892;2023-02-28T02:44:44;97294.53;;;9.60;32.80
31595;BME280;18200;48.726;8.892;2023-02-28T02:48:47;97304.66;;;9.90;32.60
31595;BME280;18200;48.726;8.892;2023-02-28T02:52:52;97303.13;;;9.89;32.86
31595;BME280;18200;48.726;8.892;2023-02-28T02:57:00;97304.59;;;7.91;36.44
31595;BME280;18200;48.726;8.892;2023-02-28T03:01:03;97308.78;;;9.27;33.87
31595;BME280;18200;48.726;8.892;2023-02-28T03:05:11;97304.06;;;9.12;34.89
31595;BME280;18200;48.726;8.892;2023-02-28T03:09:14;97310.72;;;8.94;34.96
31595;BME280;18200;48.726;8.892;2023-02-28T03:18:36;97304.56;;;8.61;36.09
31595;BME280;18200;48.726;8.892;2023-02-28T03:22:26;97306.09;;;8.29;36.65
31595;BME280;18200;48.726;8.892;2023-02-28T03:26:34;97308.28;;;8.07;37.13
31595;BME280;18200;48.726;8.892;2023-02-28T03:34:51;97304.06;;;7.76;37.75
31595;BME280;18200;48.726;8.892;2023-02-28T03:39:04;97290.94;;;8.13;36.93
31595;BME280;18200;48.726;8.892;2023-02-28T03:43:12;97299.13;;;8.70;36.06
31595;BME280;18200;48.726;8.892;2023-02-28T03:47:17;97296.53;;;8.20;36.96
31595;BME280;18200;48.726;8.892;2023-02-28T03:51:22;97293.81;;;7.78;38.24
31595;BME280;18200;48.726;8.892;2023-02-28T03:55:24;97295.78;;;8.40;36.79
31595;BME280;18200;48.726;8.892;2023-02-28T03:59:32;97300.03;;;9.06;35.11
31595;BME280;18200;48.726;8.892;2023-02-28T04:03:38;97299.81;;;8.05;37.89
31595;BME280;18200;48.726;8.892;2023-02-28T04:07:39;97295.56;;;8.98;36.48
31595;BME280;18200;48.726;8.892;2023-02-28T04:11:42;97303.75;;;8.28;37.38
31595;BME280;18200;48.726;8.892;2023-02-28T04:15:43;97301.91;;;8.20;37.66
31595;BME280;18200;48.726;8.892;2023-02-28T04:19:44;97299.75;;;8.13;38.63
31595;BME280;18200;48.726;8.892;2023-02-28T04:23:44;97297.41;;;8.53;38.07
31595;BME280;18200;48.726;8.892;2023-02-28T04:27:44;97303.13;;;8.02;38.37
31595;BME280;18200;48.726;8.892;2023-02-28T04:31:45;97304.97;;;7.80;39.66
31595;BME280;18200;48.726;8.892;2023-02-28T04:35:45;97295.56;;;7.74;38.89
31595;BME280;18200;48.726;8.892;2023-02-28T04:39:46;97296.47;;;7.58;38.92
31595;BME280;18200;48.726;8.892;2023-02-28T04:43:46;97301.50;;;7.80;39.30
31595;BME280;18200;48.726;8.892;2023-02-28T04:47:46;97298.25;;;9.10;37.24
31595;BME280;18200;48.726;8.892;2023-02-28T04:51:47;97289.47;;;9.82;35.50
31595;BME280;18200;48.726;8.892;2023-02-28T04:55:47;97283.88;;;9.75;36.21
31595;BME280;18200;48.726;8.892;2023-02-28T04:59:47;97290.72;;;9.36;36.66
31595;BME280;18200;48.726;8.892;2023-02-28T05:03:49;97289.53;;;9.01;36.70
31595;BME280;18200;48.726;8.892;2023-02-28T05:07:50;97293.03;;;8.28;38.52
31595;BME280;18200;48.726;8.892;2023-02-28T05:11:50;97292.34;;;8.10;38.92
31595;BME280;18200;48.726;8.892;2023-02-28T05:15:50;97301.00;;;7.87;39.56
31595;BME280;18200;48.726;8.892;2023-02-28T05:19:51;97294.50;;;9.72;35.77
31595;BME280;18200;48.726;8.892;2023-02-28T05:23:52;97305.94;;;8.67;37.93
31595;BME280;18200;48.726;8.892;2023-02-28T05:27:53;97302.72;;;8.41;38.37
31595;BME280;18200;48.726;8.892;2023-02-28T05:31:53;97307.81;;;8.99;37.60
31595;BME280;18200;48.726;8.892;2023-02-28T05:35:54;97298.97;;;9.31;37.06
31595;BME280;18200;48.726;8.892;2023-02-28T05:39:54;97299.41;;;9.21;37.27
31595;BME280;18200;48.726;8.892;2023-02-28T05:43:54;97303.25;;;8.67;37.57
31595;BME280;18200;48.726;8.892;2023-02-28T05:47:55;97303.78;;;9.98;35.94
31595;BME280;18200;48.726;8.892;2023-02-28T05:51:55;97299.03;;;8.66;37.59
31595;BME280;18200;48.726;8.892;2023-02-28T05:55:56;97309.44;;;8.18;39.41
31595;BME280;18200;48.726;8.892;2023-02-28T05:59:57;97300.56;;;8.67;37.42
31595;BME280;18200;48.726;8.892;2023-02-28T06:03:59;97297.53;;;9.34;37.41
31595;BME280;18200;48.726;8.892;2023-02-28T06:08:00;97299.88;;;9.96;35.46
31595;BME280;18200;48.726;8.892;2023-02-28T06:12:01;97304.31;;;9.44;35.92
31595;BME280;18200;48.726;8.892;2023-02-28T06:16:04;97307.44;;;9.33;37.21
31595;BME280;18200;48.726;8.892;2023-02-28T06:20:05;97313.06;;;9.65;36.77
31595;BME280;18200;48.726;8.892;2023-02-28T06:24:06;97314.41;;;9.83;36.07
31595;BME280;18200;48.726;8.892;2023-02-28T06:28:06;97326.84;;;9.18;37.36
31595;BME280;18200;48.726;8.892;2023-02-28T06:32:06;97335.34;;;9.20;37.81
31595;BME280;18200;48.726;8.892;2023-02-28T06:36:08;97338.75;;;9.42;36.64
31595;BME280;18200;48.726;8.892;2023-02-28T06:40:10;97334.28;;;10.06;36.00
31595;BME280;18200;48.726;8.892;2023-02-28T06:44:12;97339.19;;;10.40;35.24
31595;BME280;18200;48.726;8.892;2023-02-28T06:48:13;97335.16;;;9.37;37.17
31595;BME280;18200;48.726;8.892;2023-02-28T06:52:13;97334.28;;;9.82;36.68
31595;BME280;18200;48.726;8.892;2023-02-28T06:56:15;97338.69;;;9.98;36.35
31595;BME280;18200;48.726;8.892;2023-02-28T07:00:16;97351.53;;;8.58;38.29
31595;BME280;18200;48.726;8.892;2023-02-28T07:04:16;97350.34;;;10.54;35.27
31595;BME280;18200;48.726;8.892;2023-02-28T07:08:17;97347.88;;;10.61;34.76
31595;BME280;18200;48.726;8.892;2023-02-28T07:12:17;97353.31;;;10.25;35.96
31595;BME280;18200;48.726;8.892;2023-02-28T07:16:18;97358.91;;;9.60;37.22
31595;BME280;18200;48.726;8.892;2023-02-28T07:20:18;97360.69;;;10.40;34.95
31595;BME280;18200;48.726;8.892;2023-02-28T07:24:19;97367.16;;;10.51;34.88
31595;BME280;18200;48.726;8.892;2023-02-28T07:28:19;97360.53;;;10.88;34.29
31595;BME280;18200;48.726;8.892;2023-02-28T07:32:20;97360.50;;;11.01;34.91
31595;BME280;18200;48.726;8.892;2023-02-28T07:36:20;97365.03;;;10.84;33.78
31595;BME280;18200;48.726;8.892;2023-02-28T07:40:20;97364.25;;;10.44;34.78
31595;BME280;18200;48.726;8.892;2023-02-28T07:44:21;97355.56;;;11.03;33.88
31595;BME280;18200;48.726;8.892;2023-02-28T07:48:21;97357.78;;;10.09;35.31
31595;BME280;18200;48.726;8.892;2023-02-28T07:52:22;97363.06;;;9.81;35.78
31595;BME280;18200;48.726;8.892;2023-02-28T07:56:23;97364.03;;;9.20;36.65
31595;BME280;18200;48.726;8.892;2023-02-28T08:00:24;97369.63;;;11.12;33.30
31595;BME280;18200;48.726;8.892;2023-02-28T08:04:25;97366.88;;;11.67;32.23
31595;BME280;18200;48.726;8.892;2023-02-28T08:08:25;97376.22;;;10.86;34.55
31595;BME280;18200;48.726;8.892;2023-02-28T08:12:29;97379.38;;;10.00;34.61
31595;BME280;18200;48.726;8.892;2023-02-28T08:16:29;97386.44;;;11.09;33.39
31595;BME280;18200;48.726;8.892;2023-02-28T08:20:30;97386.00;;;11.50;32.60
31595;BME280;18200;48.726;8.892;2023-02-28T08:24:30;97377.50;;;11.48;33.05
31595;BME280;18200;48.726;8.892;2023-02-28T08:28:31;97383.19;;;11.31;33.05
31595;BME280;18200;48.726;8.892;2023-02-28T08:32:32;97378.22;;;10.62;34.46
31595;BME280;18200;48.726;8.892;2023-02-28T08:36:33;97379.59;;;11.39;33.17
31595;BME280;18200;48.726;8.892;2023-02-28T08:40:33;97381.66;;;11.02;33.80
31595;BME280;18200;48.726;8.892;2023-02-28T08:44:34;97389.13;;;10.41;34.33
31595;BME280;18200;48.726;8.892;2023-02-28T08:48:35;97386.88;;;10.19;35.29
31595;BME280;18200;48.726;8.892;2023-02-28T08:52:37;97395.63;;;11.08;33.02
31595;BME280;18200;48.726;8.892;2023-02-28T08:56:38;97397.63;;;9.50;36.21
31595;BME280;18200;48.726;8.892;2023-02-28T09:00:39;97394.63;;;8.86;37.60
31595;BME280;18200;48.726;8.892;2023-02-28T09:04:40;97394.91;;;10.55;34.24
31595;BME280;18200;48.726;8.892;2023-02-28T09:08:41;97401.84;;;11.67;32.94
31595;BME280;18200;48.726;8.892;2023-02-28T09:12:41;97410.78;;;11.28;32.44
31595;BME280;18200;48.726;8.892;2023-02-28T09:16:41;97409.91;;;11.24;33.74
31595;BME280;18200;48.726;8.892;2023-02-28T09:20:42;97402.25;;;9.74;35.64
31595;BME280;18200;48.726;8.892;2023-02-28T09:24:43;97403.84;;;9.99;35.72
31595;BME280;18200;48.726;8.892;2023-02-28T09:28:44;97407.84;;;10.65;34.04
31595;BME280;18200;48.726;8.892;2023-02-28T09:32:45;97397.97;;;11.37;33.20
31595;BME280;18200;48.726;8.892;2023-02-28T09:36:52;97399.84;;;10.29;34.68
31595;BME280;18200;48.726;8.892;2023-02-28T09:40:57;97398.19;;;11.59;32.67
31595;BME280;18200;48.726;8.892;2023-02-28T09:45:00;97409.28;;;11.58;32.53
31595;BME280;18200;48.726;8.892;2023-02-28T09:49:05;97409.63;;;10.73;33.85
31595;BME280;18200;48.726;8.892;2023-02-28T09:53:15;97409.09;;;11.51;32.51
31595;BME280;18200;48.726;8.892;2023-02-28T09:57:31;97410.22;;;11.93;31.12
31595;BME280;18200;48.726;8.892;2023-02-28T10:01:54;97417.19;;;12.44;30.78
31595;BME280;18200;48.726;8.892;2023-02-28T10:06:11;97411.03;;;12.79;30.50
31595;BME280;18200;48.726;8.892;2023-02-28T10:10:21;97421.16;;;11.85;31.08
31595;BME280;18200;48.726;8.892;2023-02-28T10:14:26;97417.84;;;12.22;30.75
31595;BME280;18200;48.726;8.892;2023-02-28T10:19:21;97423.31;;;12.95;29.42
31595;BME280;18200;48.726;8.892;2023-02-28T10:23:28;97426.22;;;12.87;29.69
31595;BME280;18200;48.726;8.892;2023-02-28T10:27:32;97432.81;;;13.05;29.56
31595;BME280;18200;48.726;8.892;2023-02-28T10:31:33;97438.00;;;11.97;30.68
31595;BME280;18200;48.726;8.892;2023-02-28T10:35:33;97442.84;;;11.76;31.13
31595;BME280;18200;48.726;8.892;2023-02-28T10:39:36;97425.66;;;12.27;30.62
31595;BME280;18200;48.726;8.892;2023-02-28T10:43:39;97429.66;;;13.03;29.39
31595;BME280;18200;48.726;8.892;2023-02-28T10:47:52;97431.69;;;11.62;31.02
31595;BME280;18200;48.726;8.892;2023-02-28T10:51:59;97431.38;;;12.41;29.15
31595;BME280;18200;48.726;8.892;2023-02-28T11:00:24;97436.88;;;11.55;31.68
31595;BME280;18200;48.726;8.892;2023-02-28T11:08:29;97435.28;;;13.13;29.94
31595;BME280;18200;48.726;8.892;2023-02-28T11:12:37;97434.22;;;13.37;28.92
31595;BME280;18200;48.726;8.892;2023-02-28T11:16:38;97431.22;;;13.42;28.50
31595;BME280;18200;48.726;8.892;2023-02-28T11:20:39;97434.75;;;12.54;29.73
31595;BME280;18200;48.726;8.892;2023-02-28T11:24:43;97438.19;;;11.61;31.36
31595;BME280;18200;48.726;8.892;2023-02-28T11:28:44;97429.66;;;13.60;28.89
31595;BME280;18200;48.726;8.892;2023-02-28T11:32:48;97430.78;;;13.59;28.97
31595;BME280;18200;48.726;8.892;2023-02-28T11:36:49;97425.28;;;14.43;27.91
31595;BME280;18200;48.726;8.892;2023-02-28T11:40:58;97424.72;;;13.66;28.76
31595;BME280;18200;48.726;8.892;2023-02-28T11:49:56;97421.63;;;14.09;27.80
31595;BME280;18200;48.726;8.892;2023-02-28T11:58:59;97415.78;;;13.84;28.47
31595;BME280;18200;48.726;8.892;2023-02-28T12:07:50;97401.72;;;14.69;27.26
31595;BME280;18200;48.726;8.892;2023-02-28T12:12:23;97397.69;;;14.56;27.44
31595;BME280;18200;48.726;8.892;2023-02-28T12:29:14;97384.53;;;15.88;25.86
31595;BME280;18200;48.726;8.892;2023-02-28T12:33:20;97385.94;;;17.83;23.91
31595;BME280;18200;48.726;8.892;2023-02-28T12:37:43;97376.13;;;17.33;24.17
31595;BME280;18200;48.726;8.892;2023-02-28T12:45:57;97369.72;;;16.87;24.66
31595;BME280;18200;48.726;8.892;2023-02-28T12:50:06;97368.47;;;18.02;23.52
31595;BME280;18200;48.726;8.892;2023-02-28T12:54:24;97371.56;;;17.94;23.68
31595;BME280;18200;48.726;8.892;2023-02-28T13:03:19;97363.81;;;18.17;23.28
31595;BME280;18200;48.726;8.892;2023-02-28T13:07:28;97357.59;;;18.02;23.15
31595;BME280;18200;48.726;8.892;2023-02-28T13:11:44;97360.69;;;18.15;23.55
31595;BME280;18200;48.726;8.892;2023-02-28T13:20:35;97354.41;;;20.16;21.18
31595;BME280;18200;48.726;8.892;2023-02-28T13:24:39;97358.06;;;19.33;22.40
31595;BME280;18200;48.726;8.892;2023-02-28T13:33:17;97346.75;;;17.95;23.24
31595;BME280;18200;48.726;8.892;2023-02-28T13:45:32;97353.16;;;19.72;21.33
31595;BME280;18200;48.726;8.892;2023-02-28T13:49:39;97358.31;;;18.66;22.99
31595;BME280;18200;48.726;8.892;2023-02-28T13:53:50;97353.25;;;19.65;21.84
31595;BME280;18200;48.726;8.892;2023-02-28T14:06:35;97362.13;;;15.17;26.84
31595;BME280;18200;48.726;8.892;2023-02-28T14:10:42;97352.16;;;18.44;24.37
31595;BME280;18200;48.726;8.892;2023-02-28T14:19:09;97357.91;;;19.65;21.78
31595;BME280;18200;48.726;8.892;2023-02-28T14:23:22;97347.50;;;17.92;22.53
31595;BME280;18200;48.726;8.892;2023-02-28T14:31:39;97337.28;;;20.11;21.22
31595;BME280;18200;48.726;8.892;2023-02-28T14:40:30;97349.03;;;17.65;23.15
31595;BME280;18200;48.726;8.892;2023-02-28T14:44:33;97357.44;;;18.94;22.37
31595;BME280;18200;48.726;8.892;2023-02-28T14:48:36;97364.63;;;16.71;24.50
31595;BME280;18200;48.726;8.892;2023-02-28T14:52:38;97353.16;;;16.41;24.58
31595;BME280;18200;48.726;8.892;2023-02-28T14:56:39;97355.25;;;18.15;23.85
31595;BME280;18200;48.726;8.892;2023-02-28T15:00:48;97360.03;;;16.89;24.36
31595;BME280;18200;48.726;8.892;2023-02-28T15:05:00;97368.38;;;17.42;24.20
31595;BME280;18200;48.726;8.892;2023-02-28T15:09:09;97362.66;;;17.86;23.57
31595;BME280;18200;48.726;8.892;2023-02-28T15:13:12;97355.28;;;17.97;23.46
31595;BME280;18200;48.726;8.892;2023-02-28T15:17:22;97367.69;;;18.19;23.49
31595;BME280;18200;48.726;8.892;2023-02-28T15:21:28;97368.09;;;16.14;24.98
31595;BME280;18200;48.726;8.892;2023-02-28T15:25:30;97360.72;;;17.87;23.99
31595;BME280;18200;48.726;8.892;2023-02-28T15:29:37;97352.94;;;17.74;23.26
31595;BME280;18200;48.726;8.892;2023-02-28T15:33:52;97365.81;;;19.45;22.51
31595;BME280;18200;48.726;8.892;2023-02-28T15:37:55;97360.69;;;18.04;23.70
31595;BME280;18200;48.726;8.892;2023-02-28T15:42:12;97358.63;;;17.27;24.39
31595;BME280;18200;48.726;8.892;2023-02-28T15:46:13;97365.53;;;17.03;24.51
31595;BME280;18200;48.726;8.892;2023-02-28T15:50:15;97356.06;;;18.01;24.14
31595;BME280;18200;48.726;8.892;2023-02-28T15:54:34;97362.53;;;19.71;21.90
31595;BME280;18200;48.726;8.892;2023-02-28T15:58:35;97359.16;;;17.82;23.77
31595;BME280;18200;48.726;8.892;2023-02-28T16:02:37;97363.78;;;18.41;23.08
31595;BME280;18200;48.726;8.892;2023-02-28T16:06:40;97365.34;;;17.72;24.25
31595;BME280;18200;48.726;8.892;2023-02-28T16:10:44;97366.44;;;18.91;22.93
31595;BME280;18200;48.726;8.892;2023-02-28T16:14:44;97371.06;;;19.01;22.48
31595;BME280;18200;48.726;8.892;2023-02-28T16:18:45;97366.91;;;18.08;23.28
31595;BME280;18200;48.726;8.892;2023-02-28T16:22:46;97366.13;;;17.79;24.12
31595;BME280;18200;48.726;8.892;2023-02-28T16:26:48;97370.81;;;18.35;23.56
31595;BME280;18200;48.726;8.892;2023-02-28T16:30:53;97383.22;;;17.73;23.80
31595;BME280;18200;48.726;8.892;2023-02-28T16:34:53;97373.13;;;18.26;23.91
31595;BME280;18200;48.726;8.892;2023-02-28T16:38:54;97384.59;;;17.18;24.98
31595;BME280;18200;48.726;8.892;2023-02-28T16:42:58;97387.09;;;17.90;24.11
31595;BME280;18200;48.726;8.892;2023-02-28T16:47:01;97387.53;;;16.81;25.34
31595;BME280;18200;48.726;8.892;2023-02-28T16:51:01;97397.06;;;17.33;24.86
31595;BME280;18200;48.726;8.892;2023-02-28T16:55:04;97403.13;;;17.01;24.75
31595;BME280;18200;48.726;8.892;2023-02-28T16:59:05;97405.69;;;17.59;24.40
31595;BME280;18200;48.726;8.892;2023-02-28T17:03:13;97407.91;;;17.26;25.19
31595;BME280;18200;48.726;8.892;2023-02-28T17:07:18;97408.50;;;16.87;25.06
31595;BME280;18200;48.726;8.892;2023-02-28T17:11:19;97413.19;;;16.97;25.37
31595;BME280;18200;48.726;8.892;2023-02-28T17:15:20;97414.84;;;17.20;25.16
31595;BME280;18200;48.726;8.892;2023-02-28T17:19:21;97413.97;;;17.01;25.34
31595;BME280;18200;48.726;8.892;2023-02-28T17:23:21;97428.56;;;16.72;25.74
31595;BME280;18200;48.726;8.892;2023-02-28T17:27:21;97431.78;;;16.88;25.37
31595;BME280;18200;48.726;8.892;2023-02-28T17:31:26;97446.59;;;16.47;26.04
31595;BME280;18200;48.726;8.892;2023-02-28T17:35:31;97442.09;;;16.18;26.79
31595;BME280;18200;48.726;8.892;2023-02-28T17:39:32;97444.00;;;16.14;26.08
31595;BME280;18200;48.726;8.892;2023-02-28T17:43:33;97448.31;;;16.22;26.66
31595;BME280;18200;48.726;8.892;2023-02-28T17:47:33;97450.22;;;16.18;26.69
31595;BME280;18200;48.726;8.892;2023-02-28T17:51:33;97456.09;;;16.27;26.25
31595;BME280;18200;48.726;8.892;2023-02-28T17:55:34;97467.44;;;15.96;26.87
31595;BME280;18200;48.726;8.892;2023-02-28T17:59:35;97461.56;;;14.68;28.87
31595;BME280;18200;48.726;8.892;2023-02-28T18:03:35;97470.03;;;14.40;28.72
31595;BME280;18200;48.726;8.892;2023-02-28T18:07:37;97460.75;;;14.19;28.95
31595;BME280;18200;48.726;8.892;2023-02-28T18:11:38;97465.28;;;14.34;29.09
31595;BME280;18200;48.726;8.892;2023-02-28T18:15:43;97464.19;;;14.16;28.69
31595;BME280;18200;48.726;8.892;2023-02-28T18:19:44;97461.28;;;14.73;28.26
31595;BME280;18200;48.726;8.892;2023-02-28T18:23:44;97463.25;;;14.50;29.01
31595;BME280;18200;48.726;8.892;2023-02-28T18:27:47;97455.88;;;14.73;28.81
31595;BME280;18200;48.726;8.892;2023-02-28T18:31:54;97456.75;;;15.10;27.75
31595;BME280;18200;48.726;8.892;2023-02-28T18:35:55;97457.16;;;14.56;28.81
31595;BME280;18200;48.726;8.892;2023-02-28T18:39:56;97465.13;;;14.46;29.22
31595;BME280;18200;48.726;8.892;2023-02-28T18:44:01;97468.44;;;14.62;28.71
31595;BME280;18200;48.726;8.892;2023-02-28T18:48:01;97474.78;;;14.73;28.38
31595;BME280;18200;48.726;8.892;2023-02-28T18:52:02;97468.38;;;14.32;29.38
31595;BME280;18200;48.726;8.892;2023-02-28T18:56:03;97464.34;;;13.81;29.57
31595;BME280;18200;48.726;8.892;2023-02-28T19:00:05;97465.03;;;13.36;30.90
31595;BME280;18200;48.726;8.892;2023-02-28T19:04:06;97458.09;;;13.35;30.40
31595;BME280;18200;48.726;8.892;2023-02-28T19:08:06;97457.50;;;13.07;31.34
31595;BME280;18200;48.726;8.892;2023-02-28T19:12:08;97467.16;;;13.27;31.13
31595;BME280;18200;48.726;8.892;2023-02-28T19:16:09;97465.25;;;13.47;30.97
31595;BME280;18200;48.726;8.892;2023-02-28T19:20:11;97468.44;;;13.52;30.14
31595;BME280;18200;48.726;8.892;2023-02-28T19:24:11;97470.16;;;13.41;31.00
31595;BME280;18200;48.726;8.892;2023-02-28T19:28:12;97472.84;;;13.60;30.80
31595;BME280;18200;48.726;8.892;2023-02-28T19:32:12;97473.13;;;13.55;30.33
31595;BME280;18200;48.726;8.892;2023-02-28T19:36:13;97465.63;;;13.45;30.80
31595;BME280;18200;48.726;8.892;2023-02-28T19:40:14;97464.47;;;13.27;31.07
31595;BME280;18200;48.726;8.892;2023-02-28T19:44:15;97469.50;;;12.75;31.54
31595;BME280;18200;48.726;8.892;2023-02-28T19:48:16;97471.06;;;12.95;31.95
31595;BME280;18200;48.726;8.892;2023-02-28T19:52:16;97469.91;;;12.77;31.74
31595;BME280;18200;48.726;8.892;2023-02-28T19:56:16;97474.34;;;13.04;31.99
31595;BME280;18200;48.726;8.892;2023-02-28T20:00:17;97467.47;;;13.22;31.30
31595;BME280;18200;48.726;8.892;2023-02-28T20:04:18;97477.34;;;12.99;31.07
31595;BME280;18200;48.726;8.892;2023-02-28T20:08:18;97474.66;;;12.99;31.72
31595;BME280;18200;48.726;8.892;2023-02-28T20:12:19;97472.03;;;13.02;31.35
31595;BME280;18200;48.726;8.892;2023-02-28T20:16:22;97469.44;;;13.25;30.99
31595;BME280;18200;48.726;8.892;2023-02-28T20:20:23;97461.84;;;13.31;30.90
31595;BME280;18200;48.726;8.892;2023-02-28T20:24:23;97464.88;;;13.29;30.87
31595;BME280;18200;48.726;8.892;2023-02-28T20:28:25;97466.81;;;13.09;30.79
31595;BME280;18200;48.726;8.892;2023-02-28T20:32:25;97464.59;;;12.80;31.08
31595;BME280;18200;48.726;8.892;2023-02-28T20:36:25;97461.56;;;12.82;31.05
31595;BME280;18200;48.726;8.892;2023-02-28T20:40:26;97461.78;;;12.92;30.67
31595;BME280;18200;48.726;8.892;2023-02-28T20:44:26;97466.53;;;12.80;30.78
31595;BME280;18200;48.726;8.892;2023-02-28T20:48:27;97452.88;;;12.73;31.31
31595;BME280;18200;48.726;8.892;2023-02-28T20:52:28;97463.97;;;12.87;31.38
31595;BME280;18200;48.726;8.892;2023-02-28T20:56:28;97452.16;;;12.76;31.52
31595;BME280;18200;48.726;8.892;2023-02-28T21:00:30;97453.25;;;12.56;31.05
31595;BME280;18200;48.726;8.892;2023-02-28T21:04:30;97448.03;;;12.63;31.80
31595;BME280;18200;48.726;8.892;2023-02-28T21:08:32;97454.97;;;12.64;31.72
31595;BME280;18200;48.726;8.892;2023-02-28T21:12:33;97456.38;;;12.58;31.58
31595;BME280;18200;48.726;8.892;2023-02-28T21:16:34;97459.34;;;12.53;31.49
31595;BME280;18200;48.726;8.892;2023-02-28T21:20:34;97459.59;;;12.63;31.57
31595;BME280;18200;48.726;8.892;2023-02-28T21:24:35;97461.00;;;12.41;31.72
31595;BME280;18200;48.726;8.892;2023-02-28T21:28:36;97464.72;;;11.47;32.90
31595;BME280;18200;48.726;8.892;2023-02-28T21:32:36;97468.66;;;11.22;33.84
31595;BME280;18200;48.726;8.892;2023-02-28T21:36:39;97469.97;;;11.28;33.73
31595;BME280;18200;48.726;8.892;2023-02-28T21:40:40;97455.94;;;11.50;33.29
31595;BME280;18200;48.726;8.892;2023-02-28T21:44:40;97462.13;;;11.23;33.94
31595;BME280;18200;48.726;8.892;2023-02-28T21:48:41;97461.53;;;11.57;33.47
31595;BME280;18200;48.726;8.892;2023-02-28T21:52:42;97458.47;;;11.43;33.33
31595;BME280;18200;48.726;8.892;2023-02-28T21:56:44;97458.38;;;11.67;33.39
31595;BME280;18200;48.726;8.892;2023-02-28T22:00:44;97455.69;;;11.67;32.93
31595;BME280;18200;48.726;8.892;2023-02-28T22:04:45;97451.13;;;11.55;32.77
31595;BME280;18200;48.726;8.892;2023-02-28T22:08:48;97453.25;;;11.34;33.06
31595;BME280;18200;48.726;8.892;2023-02-28T22:12:49;97463.53;;;11.05;33.90
31595;BME280;18200;48.726;8.892;2023-02-28T22:16:49;97449.03;;;11.49;33.35
31595;BME280;18200;48.726;8.892;2023-02-28T22:20:54;97447.94;;;11.38;33.29
31595;BME280;18200;48.726;8.892;2023-02-28T22:24:54;97449.31;;;11.04;34.52
31595;BME280;18200;48.726;8.892;2023-02-28T22:28:55;97442.06;;;10.92;33.65
31595;BME280;18200;48.726;8.892;2023-02-28T22:32:56;97447.59;;;11.12;33.83
31595;BME280;18200;48.726;8.892;2023-02-28T22:36:56;97448.88;;;10.38;34.58
31595;BME280;18200;48.726;8.892;2023-02-28T22:40:57;97436.63;;;10.77;34.92
31595;BME280;18200;48.726;8.892;2023-02-28T22:44:57;97437.84;;;10.79;34.93
31595;BME280;18200;48.726;8.892;2023-02-28T22:48:58;97449.97;;;10.61;33.62
31595;BME280;18200;48.726;8.892;2023-02-28T22:52:59;97439.19;;;10.73;34.42
31595;BME280;18200;48.726;8.892;2023-02-28T22:57:00;97446.38;;;10.57;34.49
31595;BME280;18200;48.726;8.892;2023-02-28T23:01:08;97448.63;;;10.07;35.76
31595;BME280;18200;48.726;8.892;2023-02-28T23:05:10;97453.06;;;10.03;35.58
31595;BME280;18200;48.726;8.892;2023-02-28T23:09:16;97454.88;;;9.21;36.99
31595;BME280;18200;48.726;8.892;2023-02-28T23:13:18;97450.28;;;9.55;36.42
31595;BME280;18200;48.726;8.892;2023-02-28T23:17:18;97437.88;;;10.07;36.04
31595;BME280;18200;48.726;8.892;2023-02-28T23:21:19;97437.66;;;10.48;34.96